Sultan Ismail Petra Airport
WMKC : now visible

Airfield :











YOU CAN JOIN US ON...

 
LOGIN :

Register | Disclaimer

   EN    FR    IT 

 









Legend :    VFR   Marginal VFR   IFR   Intensive IFR   Very Intensive IFR
Visi :
Ceiling :
>= 8 km
>= 3000ft
5 to 8 km
1000 to 3000 ft
1500m to 5 km
500 to 1000 ft
800 to 1500m
200 to 500 ft
< 800m
< 200 ft
Symbols :   Thunderstorms  Fog  Heavy snow  Heavy precipitations  Wind > 20 kt






- Airport Elevation : 16 ft
- IATA code : KBR


WMKC - Sultan Ismail Petra

CURRENT METAR :
  • 020300Z 00000KT 7000 -RA FEW005 SCT020 24/23 Q1010

EXPIRED METARs :
  • 020200Z 00000KT 7000 -RA FEW008 SCT020 24/23 Q1009
  • 020100Z 00000KT 1000 +RA FEW008 SCT020 24/23 Q1009

TAF AMD TAF WMKC
Valid from the 02 at 01:00 until the 03 at 00:00 UTC


020127Z 0201/0224 02005KT 9999 FEW018
TEMPO 0201/0203 2000 +RA FEW010 SCT020
TEMPO 0204/0206 5000 RA FEW010 SCT020
WMFC FIR / Asia



MET'MAP, your aeronautical weather chart ! - Copyright ORBIFLY December 2007 - Disclaimer

ORBIFLY MET'MAP TEAM :

Programming & Development : Alexandra Zaïnal
Original concept : Baudouin d'Aumeries
Technical & hardware support : Manuel Goepfert
Assistance : Marc-Olivier Méhu




SOURCES & CREDITS :

   NOAA       Earth
Advisory